CheckWX is a tool to help pilots better visualize weather data.  It is not intended as a substitute for an official pre-flight weather briefing.

01:09:51 UTC

KDNL TAF
Daniel Field Airport
Augusta, Georgia, USA
KDNL 192320Z 2000/2024 22007KT P6SM BKN200 FM200300 23004KT P6SM SCT150 FM201500 23007KT P6SM SCT050

Jul-20@
00:00 UTC

Jul-20 @ 00:00 UTC

Jul-20@
03:00 UTC

Jul-20 @ 03:00 UTC

KDNL 192320Z 2000/2024 22007KT P6SM BKN200
Wind
  • 220° at 7 KTS
Cloud Levels
  • Broken at 20,000' AGL

Jul-20@
03:00 UTC

Jul-20 @ 03:00 UTC

Jul-20@
15:00 UTC

Jul-20 @ 15:00 UTC

FM200300 23004KT P6SM SCT150

From

From Standard forecast or significant change

Wind
  • 230° at 4 KTS
Cloud Levels
  • Scattered at 15,000' AGL

Jul-20@
15:00 UTC

Jul-20 @ 15:00 UTC

Jul-21@
00:00 UTC

Jul-21 @ 00:00 UTC

FM201500 23007KT P6SM SCT050

From

From Standard forecast or significant change

Wind
  • 230° at 7 KTS
Cloud Levels
  • Scattered at 5,000' AGL